createdAt,value
2019-06-20T00:00:05.089Z,25.19
2019-06-20T00:01:05.567Z,25.06
2019-06-20T00:02:05.817Z,25.25
2019-06-20T00:03:05.150Z,25.25
2019-06-20T00:04:05.523Z,25.25
2019-06-20T00:05:05.783Z,25.31
2019-06-20T00:06:05.188Z,25.19
2019-06-20T00:07:05.420Z,25.00
2019-06-20T00:08:05.381Z,25.25
2019-06-20T00:09:06.039Z,25.38
2019-06-20T00:10:05.079Z,25.50
2019-06-20T00:11:05.228Z,25.56
2019-06-20T00:12:05.787Z,25.50
2019-06-20T00:13:05.958Z,25.38
2019-06-20T00:14:05.235Z,25.38
2019-06-20T00:15:06.268Z,25.31
2019-06-20T00:16:06.039Z,25.12
2019-06-20T00:17:05.162Z,25.06
2019-06-20T00:18:05.503Z,24.94
2019-06-20T00:19:05.724Z,24.94
2019-06-20T00:20:05.881Z,25.00
2019-06-20T00:21:05.947Z,24.75
2019-06-20T00:22:05.067Z,24.62
2019-06-20T00:23:05.243Z,24.50
2019-06-20T00:24:05.942Z,24.38
2019-06-20T00:25:05.083Z,24.31
2019-06-20T00:26:05.219Z,24.38
2019-06-20T00:27:06.051Z,24.56
2019-06-20T00:28:05.163Z,24.94
2019-06-20T00:29:05.406Z,25.00
2019-06-20T00:30:05.483Z,25.00
2019-06-20T00:31:05.952Z,25.12
2019-06-20T00:32:05.391Z,25.00
2019-06-20T00:33:05.229Z,25.00
2019-06-20T00:34:05.809Z,25.06
2019-06-20T00:35:05.726Z,25.06
2019-06-20T00:36:05.060Z,25.12
2019-06-20T00:37:06.316Z,25.19
2019-06-20T00:38:05.881Z,25.12
2019-06-20T00:39:06.934Z,25.00
2019-06-20T00:40:05.559Z,25.12
2019-06-20T00:41:05.395Z,25.06
2019-06-20T00:42:05.627Z,25.06
2019-06-20T00:43:16.686Z,25.06
2019-06-20T00:44:05.553Z,25.12
2019-06-20T00:45:05.321Z,25.06
2019-06-20T00:46:05.778Z,25.12
2019-06-20T00:47:05.963Z,24.94
2019-06-20T00:48:05.188Z,24.75
2019-06-20T00:49:05.740Z,24.81
2019-06-20T00:50:05.983Z,24.81
2019-06-20T00:51:05.150Z,24.94
2019-06-20T00:52:05.318Z,25.00
2019-06-20T00:53:05.320Z,25.12
2019-06-20T00:54:05.971Z,25.38
2019-06-20T00:55:05.244Z,25.44
2019-06-20T00:56:05.404Z,25.50
2019-06-20T00:57:05.635Z,25.50
2019-06-20T00:58:05.984Z,25.44
2019-06-20T00:59:06.048Z,25.44
2019-06-20T01:00:06.044Z,25.25
2019-06-20T01:01:05.249Z,25.12
2019-06-20T01:02:05.424Z,25.12
2019-06-20T01:03:05.878Z,25.06
2019-06-20T01:04:05.947Z,25.12
2019-06-20T01:05:05.248Z,24.81
2019-06-20T01:06:05.321Z,24.62
2019-06-20T01:07:05.730Z,24.44
2019-06-20T01:08:05.845Z,24.38
2019-06-20T01:09:05.961Z,24.25
2019-06-20T01:10:05.245Z,24.25
2019-06-20T01:11:05.953Z,24.12
2019-06-20T01:12:05.413Z,24.06
2019-06-20T01:13:05.802Z,24.00
2019-06-20T01:14:05.948Z,24.06
2019-06-20T01:15:05.174Z,24.12
2019-06-20T01:16:05.399Z,24.25
2019-06-20T01:17:05.639Z,24.19
2019-06-20T01:18:05.331Z,24.06
2019-06-20T01:19:05.555Z,24.00
2019-06-20T01:20:06.049Z,23.88
2019-06-20T01:21:05.073Z,24.00
2019-06-20T01:22:05.334Z,24.12
2019-06-20T01:23:05.484Z,24.06
2019-06-20T01:24:05.734Z,24.00
2019-06-20T01:25:05.491Z,24.06
2019-06-20T01:26:05.642Z,24.06
2019-06-20T01:27:05.728Z,24.12
2019-06-20T01:28:05.890Z,24.50
2019-06-20T01:29:05.942Z,24.38
2019-06-20T01:30:05.252Z,24.25
2019-06-20T01:31:05.922Z,24.19
2019-06-20T01:32:05.418Z,24.31
2019-06-20T01:33:05.389Z,24.38
2019-06-20T01:34:05.955Z,24.44
2019-06-20T01:35:05.087Z,24.50
2019-06-20T01:36:05.542Z,24.56
2019-06-20T01:37:05.152Z,24.56
2019-06-20T01:38:05.727Z,24.62
2019-06-20T01:39:05.075Z,24.69
2019-06-20T01:40:05.394Z,24.75
2019-06-20T01:41:06.295Z,24.62
2019-06-20T01:42:05.881Z,24.62
2019-06-20T01:43:05.408Z,24.75
2019-06-20T01:44:05.990Z,24.88
2019-06-20T01:45:05.896Z,25.00
2019-06-20T01:46:05.242Z,24.94
2019-06-20T01:47:05.890Z,25.12
2019-06-20T01:48:05.811Z,24.94
2019-06-20T01:49:05.966Z,24.62
2019-06-20T01:50:05.089Z,24.62
2019-06-20T01:51:05.181Z,24.62
2019-06-20T01:52:05.340Z,24.62
2019-06-20T01:53:05.730Z,24.69
2019-06-20T01:54:05.415Z,24.75
2019-06-20T01:55:05.712Z,24.38
2019-06-20T01:56:05.313Z,24.06
2019-06-20T01:57:05.323Z,23.81
2019-06-20T01:58:05.550Z,23.81
2019-06-20T01:59:05.396Z,23.81
2019-06-20T02:00:06.994Z,23.94
2019-06-20T02:01:05.586Z,24.00
2019-06-20T02:02:05.083Z,24.12
2019-06-20T02:03:05.316Z,23.94
2019-06-20T02:04:06.142Z,24.00
2019-06-20T02:05:05.300Z,24.00
2019-06-20T02:06:05.797Z,23.94
2019-06-20T02:07:05.408Z,23.75
2019-06-20T02:08:05.553Z,23.75
2019-06-20T02:09:05.792Z,23.69
2019-06-20T02:10:05.329Z,23.56
2019-06-20T02:11:05.889Z,23.50
2019-06-20T02:12:05.942Z,23.50
2019-06-20T02:13:05.341Z,23.44
2019-06-20T02:14:07.427Z,23.31
2019-06-20T02:15:05.340Z,23.44
2019-06-20T02:16:05.706Z,23.44
2019-06-20T02:17:05.884Z,23.31
2019-06-20T02:18:05.070Z,23.19
2019-06-20T02:19:05.249Z,23.12
2019-06-20T02:20:05.400Z,23.25
2019-06-20T02:21:07.550Z,23.38
2019-06-20T02:22:05.156Z,23.31
2019-06-20T02:23:05.313Z,23.12
2019-06-20T02:24:05.872Z,23.00
2019-06-20T02:25:05.252Z,23.00
2019-06-20T02:26:05.721Z,22.94
2019-06-20T02:27:05.950Z,22.81
2019-06-20T02:28:05.254Z,22.81
2019-06-20T02:29:05.910Z,22.81
2019-06-20T02:30:05.970Z,22.88
2019-06-20T02:31:06.092Z,22.81
2019-06-20T02:32:05.246Z,22.81
2019-06-20T02:33:05.714Z,22.88
2019-06-20T02:34:05.334Z,22.81
2019-06-20T02:35:05.487Z,22.69
2019-06-20T02:36:06.011Z,22.62
2019-06-20T02:37:05.339Z,22.75
2019-06-20T02:38:05.898Z,22.81
2019-06-20T02:39:05.887Z,22.88
2019-06-20T02:40:05.235Z,23.00
2019-06-20T02:41:05.554Z,23.25
2019-06-20T02:42:05.899Z,23.38
2019-06-20T02:43:05.961Z,23.44
2019-06-20T02:44:05.252Z,23.56
2019-06-20T02:45:05.640Z,23.75
2019-06-20T02:46:05.387Z,23.75
2019-06-20T02:47:05.072Z,23.69
2019-06-20T02:48:05.921Z,23.75
2019-06-20T02:49:06.047Z,23.69
2019-06-20T02:50:06.036Z,23.81
2019-06-20T02:51:05.158Z,23.94
2019-06-20T02:52:05.811Z,24.19
2019-06-20T02:53:06.041Z,24.25
2019-06-20T02:54:05.363Z,24.31
2019-06-20T02:55:05.638Z,24.06
2019-06-20T02:56:05.366Z,23.94
2019-06-20T02:57:05.796Z,23.81
2019-06-20T02:58:05.193Z,23.75
2019-06-20T02:59:05.361Z,23.56
2019-06-20T03:00:05.241Z,23.62
2019-06-20T03:01:05.640Z,23.50
2019-06-20T03:02:05.332Z,23.50
2019-06-20T03:03:05.722Z,23.31
2019-06-20T03:04:05.289Z,23.44
2019-06-20T03:05:05.896Z,23.94
2019-06-20T03:06:05.897Z,23.88
2019-06-20T03:07:05.092Z,23.56
2019-06-20T03:08:05.237Z,23.19
2019-06-20T03:09:05.401Z,22.94
2019-06-20T03:10:06.041Z,22.69
2019-06-20T03:11:05.172Z,22.56
2019-06-20T03:12:05.420Z,22.44
2019-06-20T03:13:05.511Z,22.31
2019-06-20T03:14:05.308Z,22.25
2019-06-20T03:15:06.045Z,22.19
2019-06-20T03:16:05.414Z,22.31
2019-06-20T03:17:06.033Z,22.31
2019-06-20T03:18:05.089Z,22.44
2019-06-20T03:19:05.167Z,22.56
2019-06-20T03:20:05.717Z,22.56
2019-06-20T03:21:05.492Z,22.69
2019-06-20T03:22:05.479Z,22.62
2019-06-20T03:23:05.179Z,22.69
2019-06-20T03:24:05.343Z,22.69
2019-06-20T03:25:05.661Z,22.75
2019-06-20T03:26:05.637Z,22.88
2019-06-20T03:27:05.649Z,22.88
2019-06-20T03:28:05.315Z,22.94
2019-06-20T03:29:05.751Z,23.00
2019-06-20T03:30:05.905Z,23.06
2019-06-20T03:31:05.878Z,23.19
2019-06-20T03:32:05.076Z,23.44
2019-06-20T03:33:05.332Z,23.50
2019-06-20T03:34:05.725Z,23.31
2019-06-20T03:35:06.075Z,23.25
2019-06-20T03:36:05.348Z,23.19
2019-06-20T03:37:05.155Z,23.19
2019-06-20T03:38:05.760Z,23.19
2019-06-20T03:39:05.165Z,23.19
2019-06-20T03:40:05.634Z,23.06
2019-06-20T03:41:05.980Z,23.12
2019-06-20T03:42:05.324Z,23.06
2019-06-20T03:43:05.180Z,23.00
2019-06-20T03:44:05.317Z,23.06
2019-06-20T03:45:05.241Z,23.06
2019-06-20T03:46:05.338Z,23.12
2019-06-20T03:47:05.403Z,23.12
2019-06-20T03:48:05.887Z,23.06
2019-06-20T03:49:05.150Z,23.12
2019-06-20T03:50:06.046Z,23.06
2019-06-20T03:51:06.152Z,23.06
2019-06-20T03:52:05.157Z,23.00
2019-06-20T03:53:05.725Z,22.94
2019-06-20T03:54:05.401Z,22.88
2019-06-20T03:55:06.117Z,22.88
2019-06-20T03:56:05.243Z,22.88
2019-06-20T03:57:05.785Z,23.00
2019-06-20T03:58:05.887Z,23.00
2019-06-20T03:59:05.068Z,22.94
2019-06-20T04:00:05.323Z,22.88
2019-06-20T04:01:05.568Z,22.94
2019-06-20T04:02:05.169Z,22.88
2019-06-20T04:03:05.639Z,22.94
2019-06-20T04:04:05.715Z,23.12
2019-06-20T04:05:05.862Z,23.25
2019-06-20T04:06:05.331Z,23.50
2019-06-20T04:07:05.405Z,23.56
2019-06-20T04:08:05.487Z,23.44
2019-06-20T04:09:05.724Z,23.31
2019-06-20T04:10:05.632Z,23.25
2019-06-20T04:11:05.405Z,23.31
2019-06-20T04:12:05.483Z,23.38
2019-06-20T04:13:05.879Z,23.31
2019-06-20T04:14:06.062Z,23.25
2019-06-20T04:15:17.730Z,23.25
2019-06-20T04:16:05.968Z,23.19
2019-06-20T04:17:05.157Z,23.19
2019-06-20T04:18:05.799Z,23.19
2019-06-20T04:19:05.888Z,23.12
2019-06-20T04:20:05.077Z,23.06
2019-06-20T04:21:05.748Z,23.00
2019-06-20T04:22:05.792Z,23.12
2019-06-20T04:23:05.152Z,23.12
2019-06-20T04:24:05.475Z,23.19
2019-06-20T04:25:06.127Z,23.19
2019-06-20T04:26:05.236Z,23.19
2019-06-20T04:27:05.404Z,23.19
2019-06-20T04:28:05.671Z,23.25
2019-06-20T04:29:05.212Z,23.31
2019-06-20T04:30:05.255Z,23.31
2019-06-20T04:31:05.422Z,23.38
2019-06-20T04:32:06.123Z,23.44
2019-06-20T04:33:05.234Z,23.44
2019-06-20T04:34:05.624Z,23.38
2019-06-20T04:35:05.581Z,23.38
2019-06-20T04:36:05.719Z,23.38
2019-06-20T04:37:05.965Z,23.38
2019-06-20T04:38:05.401Z,23.38
2019-06-20T04:39:18.305Z,23.44
2019-06-20T04:40:05.088Z,23.38
2019-06-20T04:41:05.808Z,23.38
2019-06-20T04:42:05.953Z,23.44
2019-06-20T04:43:05.097Z,23.44
2019-06-20T04:44:05.793Z,23.50
2019-06-20T04:45:05.485Z,23.56
2019-06-20T04:46:05.622Z,23.62
2019-06-20T04:47:06.027Z,23.69
2019-06-20T04:48:05.162Z,23.75
2019-06-20T04:49:05.395Z,23.75
2019-06-20T04:50:05.885Z,23.81
2019-06-20T04:51:05.084Z,23.88
2019-06-20T04:52:06.030Z,24.00
2019-06-20T04:53:05.337Z,24.56
2019-06-20T04:54:05.961Z,24.38
2019-06-20T04:55:05.175Z,24.31
2019-06-20T04:56:05.908Z,24.25
2019-06-20T04:57:05.532Z,24.25
2019-06-20T04:58:05.246Z,24.12
2019-06-20T04:59:05.874Z,24.06
2019-06-20T05:00:05.502Z,24.00
2019-06-20T05:01:05.826Z,24.06
2019-06-20T05:02:05.403Z,24.19
2019-06-20T05:03:05.878Z,24.31
2019-06-20T05:04:05.325Z,24.44
2019-06-20T05:05:05.404Z,24.19
2019-06-20T05:06:05.878Z,24.19
2019-06-20T05:07:05.419Z,24.19
2019-06-20T05:08:05.494Z,24.25
2019-06-20T05:09:06.086Z,24.25
2019-06-20T05:10:05.313Z,24.19
2019-06-20T05:11:05.588Z,24.00
2019-06-20T05:12:05.557Z,24.06
2019-06-20T05:13:05.882Z,24.00
2019-06-20T05:14:06.129Z,24.19
2019-06-20T05:15:05.250Z,24.44
2019-06-20T05:16:05.640Z,24.62
2019-06-20T05:17:07.205Z,24.50
2019-06-20T05:18:05.162Z,24.75
2019-06-20T05:19:05.249Z,24.69
2019-06-20T05:20:05.948Z,24.56
2019-06-20T05:21:06.046Z,24.50
2019-06-20T05:22:05.247Z,24.44
2019-06-20T05:23:05.721Z,24.38
2019-06-20T05:24:05.891Z,24.25
2019-06-20T05:25:05.497Z,24.19
2019-06-20T05:26:05.546Z,24.25
2019-06-20T05:27:05.334Z,24.31
2019-06-20T05:28:05.608Z,24.31
2019-06-20T05:29:05.767Z,24.31
2019-06-20T05:30:05.011Z,24.31
2019-06-20T05:31:05.272Z,24.44
2019-06-20T05:32:05.187Z,24.44
2019-06-20T05:33:05.239Z,24.50
2019-06-20T05:34:05.511Z,24.62
2019-06-20T05:35:05.087Z,24.69
2019-06-20T05:36:05.479Z,24.75
2019-06-20T05:37:08.321Z,24.75
2019-06-20T05:38:05.970Z,24.69
2019-06-20T05:39:05.607Z,24.69
2019-06-20T05:40:05.719Z,24.94
2019-06-20T05:41:05.574Z,24.94
2019-06-20T05:42:05.911Z,25.94
2019-06-20T05:43:05.395Z,25.75
2019-06-20T05:44:05.628Z,25.50
2019-06-20T05:45:05.882Z,25.38
2019-06-20T05:46:09.802Z,25.44
2019-06-20T05:47:12.186Z,25.50
2019-06-20T05:48:05.484Z,25.62
2019-06-20T05:49:06.129Z,25.56
2019-06-20T05:50:05.989Z,26.00
2019-06-20T05:51:06.283Z,26.12
2019-06-20T05:52:05.964Z,25.81
2019-06-20T05:53:05.090Z,25.62
2019-06-20T05:54:05.867Z,25.44
2019-06-20T05:55:05.313Z,25.44
2019-06-20T05:56:05.551Z,25.44
2019-06-20T05:57:05.463Z,25.56
2019-06-20T05:58:05.792Z,25.69
2019-06-20T05:59:05.413Z,25.88
2019-06-20T06:00:05.585Z,26.00
2019-06-20T06:01:05.581Z,26.06
2019-06-20T06:02:06.059Z,26.00
2019-06-20T06:03:07.050Z,26.00
2019-06-20T06:04:05.818Z,26.19
2019-06-20T06:05:05.000Z,26.19
2019-06-20T06:06:05.409Z,26.12
2019-06-20T06:07:05.404Z,26.19
2019-06-20T06:08:05.792Z,26.19
2019-06-20T06:09:05.139Z,26.25
2019-06-20T06:10:05.816Z,26.31
2019-06-20T06:11:05.246Z,26.31
2019-06-20T06:12:05.505Z,26.38
2019-06-20T06:13:05.676Z,26.44
2019-06-20T06:14:05.251Z,26.50
2019-06-20T06:15:06.278Z,26.50
2019-06-20T06:16:05.096Z,26.56
2019-06-20T06:17:05.633Z,26.62
2019-06-20T06:18:05.563Z,26.81
2019-06-20T06:19:06.062Z,27.00
2019-06-20T06:20:05.261Z,27.31
2019-06-20T06:21:05.553Z,27.44
2019-06-20T06:22:05.722Z,27.62
2019-06-20T06:23:05.398Z,27.81
2019-06-20T06:24:05.834Z,28.00
2019-06-20T06:25:05.414Z,28.06
2019-06-20T06:26:05.718Z,28.19
2019-06-20T06:27:05.641Z,28.38
2019-06-20T06:28:05.848Z,28.50
2019-06-20T06:29:05.084Z,28.81
2019-06-20T06:30:06.387Z,28.88
2019-06-20T06:31:05.809Z,28.88
2019-06-20T06:32:05.538Z,29.00
2019-06-20T06:33:05.472Z,29.12
2019-06-20T06:34:05.830Z,29.25
2019-06-20T06:35:05.833Z,29.38
2019-06-20T06:36:05.415Z,29.62
2019-06-20T06:37:05.724Z,29.94
2019-06-20T06:38:06.047Z,30.19
2019-06-20T06:39:05.489Z,30.38
2019-06-20T06:40:05.961Z,30.62
2019-06-20T06:41:05.552Z,30.75
2019-06-20T06:42:05.166Z,30.75
2019-06-20T06:43:05.526Z,30.75
2019-06-20T06:44:08.408Z,30.88
2019-06-20T06:45:05.396Z,31.00
2019-06-20T06:46:05.090Z,31.12
2019-06-20T06:47:05.745Z,31.25
2019-06-20T06:48:06.066Z,31.31
2019-06-20T06:49:05.393Z,31.38
2019-06-20T06:50:05.759Z,31.56
2019-06-20T06:51:05.791Z,31.62
2019-06-20T06:52:05.954Z,31.69
2019-06-20T06:53:05.576Z,31.81
2019-06-20T06:54:05.490Z,32.00
2019-06-20T06:55:05.812Z,32.19
2019-06-20T06:56:05.645Z,32.31
2019-06-20T06:57:05.985Z,32.38
2019-06-20T06:58:08.286Z,32.56
2019-06-20T06:59:06.043Z,32.81
2019-06-20T07:00:05.327Z,32.88
2019-06-20T07:01:05.787Z,33.00
2019-06-20T07:02:05.569Z,33.25
2019-06-20T07:03:05.980Z,33.38
2019-06-20T07:04:05.234Z,33.50
2019-06-20T07:05:05.740Z,33.56
2019-06-20T07:06:05.725Z,33.75
2019-06-20T07:07:05.085Z,33.69
2019-06-20T07:08:05.495Z,33.69
2019-06-20T07:09:05.486Z,33.62
2019-06-20T07:10:05.751Z,33.62
2019-06-20T07:11:06.227Z,33.75
2019-06-20T07:12:05.642Z,33.81
2019-06-20T07:13:05.404Z,33.88
2019-06-20T07:14:05.612Z,33.94
2019-06-20T07:15:05.740Z,34.00
2019-06-20T07:16:05.181Z,34.06
2019-06-20T07:17:05.487Z,34.06
2019-06-20T07:18:05.796Z,34.12
2019-06-20T07:19:05.158Z,34.12
2019-06-20T07:20:05.648Z,34.06
2019-06-20T07:21:05.869Z,34.06
2019-06-20T07:22:05.088Z,34.12
2019-06-20T07:23:05.319Z,34.19
2019-06-20T07:24:05.752Z,34.25
2019-06-20T07:25:05.809Z,34.19
2019-06-20T07:26:05.876Z,34.19
2019-06-20T07:27:05.001Z,34.25
2019-06-20T07:28:05.644Z,34.38
2019-06-20T07:29:05.318Z,34.44
2019-06-20T07:30:05.798Z,34.44
2019-06-20T07:31:05.257Z,34.50
2019-06-20T07:32:05.851Z,34.56
2019-06-20T07:33:05.421Z,34.62
2019-06-20T07:34:05.592Z,34.69
2019-06-20T07:35:05.723Z,34.75
2019-06-20T07:36:05.583Z,34.75
2019-06-20T07:37:05.889Z,34.69
2019-06-20T07:38:05.496Z,34.69
2019-06-20T07:39:06.052Z,34.75
2019-06-20T07:40:05.402Z,34.81
2019-06-20T07:41:05.814Z,34.81
2019-06-20T07:42:05.994Z,34.75
2019-06-20T07:43:05.320Z,34.62
2019-06-20T07:44:05.745Z,34.56
2019-06-20T07:45:06.052Z,34.56
2019-06-20T07:46:05.662Z,34.56
2019-06-20T07:47:16.910Z,34.56
2019-06-20T07:48:05.490Z,34.50
2019-06-20T07:49:05.731Z,34.56
2019-06-20T07:50:06.065Z,34.50
2019-06-20T07:51:05.170Z,34.56
2019-06-20T07:52:05.597Z,34.56
2019-06-20T07:53:06.209Z,34.56
2019-06-20T07:54:05.652Z,34.62
2019-06-20T07:55:05.107Z,34.62
2019-06-20T07:56:09.221Z,34.56
2019-06-20T07:57:05.567Z,34.56
2019-06-20T07:58:05.418Z,34.56
2019-06-20T07:59:06.626Z,34.62
2019-06-20T08:00:06.061Z,34.62
2019-06-20T08:01:05.190Z,34.56
2019-06-20T08:02:05.783Z,34.56
2019-06-20T08:03:05.391Z,34.62
2019-06-20T08:04:05.070Z,34.62
2019-06-20T08:05:05.657Z,34.50
2019-06-20T08:06:05.888Z,34.50
2019-06-20T08:07:06.157Z,34.44
2019-06-20T08:08:05.422Z,34.38
2019-06-20T08:09:05.574Z,34.31
2019-06-20T08:10:05.664Z,34.25
2019-06-20T08:11:05.244Z,34.31
2019-06-20T08:12:05.816Z,34.38
2019-06-20T08:13:06.788Z,34.44
2019-06-20T08:14:05.164Z,34.31
2019-06-20T08:15:14.817Z,34.06
2019-06-20T08:16:05.391Z,34.00
2019-06-20T08:17:06.041Z,34.00
2019-06-20T08:18:06.042Z,33.94
2019-06-20T08:19:05.247Z,33.88
2019-06-20T08:20:05.880Z,33.75
2019-06-20T08:21:05.408Z,33.69
2019-06-20T08:22:05.963Z,33.69
2019-06-20T08:23:05.881Z,33.62
2019-06-20T08:24:06.060Z,33.56
2019-06-20T08:25:05.415Z,33.44
2019-06-20T08:26:05.017Z,33.38
2019-06-20T08:27:06.654Z,33.38
2019-06-20T08:28:05.073Z,33.31
2019-06-20T08:29:18.505Z,33.31
2019-06-20T08:30:07.144Z,33.50
2019-06-20T08:31:06.700Z,33.44
2019-06-20T08:32:06.593Z,33.50
2019-06-20T08:33:10.234Z,33.31
2019-06-20T08:34:06.512Z,33.19
2019-06-20T08:35:06.411Z,33.12
2019-06-20T08:36:06.655Z,33.00
2019-06-20T08:37:06.401Z,33.00
2019-06-20T08:38:07.472Z,32.88
2019-06-20T08:39:06.444Z,32.88
2019-06-20T08:40:06.544Z,32.88
2019-06-20T08:41:06.523Z,32.94
2019-06-20T08:42:06.366Z,32.94
2019-06-20T08:43:06.353Z,32.81
2019-06-20T08:44:06.174Z,32.88
2019-06-20T08:45:06.105Z,32.88
2019-06-20T08:46:10.034Z,32.81
2019-06-20T08:47:05.957Z,32.62
2019-06-20T08:48:07.067Z,32.56
2019-06-20T08:49:05.879Z,32.44
2019-06-20T08:50:05.994Z,32.38
2019-06-20T08:51:06.550Z,32.19
2019-06-20T08:52:05.573Z,32.06
2019-06-20T08:53:05.814Z,32.06
2019-06-20T08:54:06.303Z,32.19
2019-06-20T08:55:05.436Z,32.25
2019-06-20T08:56:05.530Z,32.31
2019-06-20T08:57:05.812Z,32.38
2019-06-20T08:58:05.780Z,32.44
2019-06-20T08:59:05.568Z,32.44
2019-06-20T09:03:05.547Z,32.62
2019-06-20T09:04:06.095Z,32.56
2019-06-20T09:05:05.168Z,32.56
2019-06-20T09:06:05.292Z,32.56
2019-06-20T09:07:05.964Z,32.44
2019-06-20T09:08:05.155Z,32.38
2019-06-20T09:09:05.499Z,32.31
2019-06-20T09:10:05.468Z,32.25
2019-06-20T09:11:05.420Z,32.31
2019-06-20T09:12:05.875Z,32.25
2019-06-20T09:13:05.241Z,32.06
2019-06-20T09:14:05.723Z,31.94
2019-06-20T09:15:05.983Z,31.81
2019-06-20T09:16:05.082Z,31.56
2019-06-20T09:17:05.639Z,31.56
2019-06-20T09:18:06.780Z,31.50
2019-06-20T09:19:05.412Z,31.44
2019-06-20T09:20:05.822Z,31.50
2019-06-20T09:21:05.959Z,31.44
2019-06-20T09:22:05.577Z,31.44
2019-06-20T09:23:05.322Z,31.44
2019-06-20T09:24:05.803Z,31.38
2019-06-20T09:25:05.663Z,31.31
2019-06-20T09:26:05.343Z,31.25
2019-06-20T09:27:05.796Z,31.25
2019-06-20T09:28:05.394Z,31.25
2019-06-20T09:29:05.637Z,31.31
2019-06-20T09:30:05.329Z,31.31
2019-06-20T09:31:05.799Z,31.19
2019-06-20T09:32:06.137Z,31.06
2019-06-20T09:33:05.176Z,31.12
2019-06-20T09:34:05.643Z,31.00
2019-06-20T09:35:05.091Z,30.94
2019-06-20T09:36:06.302Z,31.00
2019-06-20T09:37:05.660Z,30.94
2019-06-20T09:38:05.393Z,31.00
2019-06-20T09:39:05.563Z,31.06
2019-06-20T09:40:05.948Z,31.00
2019-06-20T09:41:05.394Z,31.06
2019-06-20T09:42:05.466Z,31.06
2019-06-20T09:43:05.954Z,31.00
2019-06-20T09:44:05.660Z,31.00
2019-06-20T09:45:05.962Z,31.00
2019-06-20T09:46:05.809Z,31.06
2019-06-20T09:47:05.962Z,31.12
2019-06-20T09:48:05.157Z,31.12
2019-06-20T09:49:06.053Z,31.19
2019-06-20T09:50:05.390Z,31.12
2019-06-20T09:51:05.967Z,31.19
2019-06-20T09:52:06.118Z,31.19
2019-06-20T09:53:05.724Z,31.19
2019-06-20T09:54:06.063Z,31.06
2019-06-20T09:55:05.502Z,31.06
2019-06-20T09:56:05.735Z,31.06
2019-06-20T09:57:06.033Z,31.00
2019-06-20T09:58:05.071Z,30.88
2019-06-20T09:59:05.712Z,31.00
2019-06-20T10:00:09.890Z,31.06
2019-06-20T10:01:05.344Z,31.19
2019-06-20T10:02:05.677Z,31.19
2019-06-20T10:03:05.983Z,31.19
2019-06-20T10:04:06.127Z,31.12
2019-06-20T10:05:05.502Z,31.12
2019-06-20T10:06:13.130Z,31.12
2019-06-20T10:07:06.111Z,31.12
2019-06-20T10:08:05.558Z,31.12
2019-06-20T10:09:05.162Z,31.06
2019-06-20T10:10:05.315Z,31.00
2019-06-20T10:11:05.399Z,30.94
2019-06-20T10:12:05.658Z,30.88
2019-06-20T10:13:05.237Z,30.81
2019-06-20T10:14:05.244Z,30.69
2019-06-20T10:15:05.256Z,30.69
2019-06-20T10:16:05.161Z,30.69
2019-06-20T10:17:06.041Z,30.69
2019-06-20T10:18:05.326Z,30.69
2019-06-20T10:19:05.650Z,30.69
2019-06-20T10:20:05.240Z,30.69
2019-06-20T10:21:05.419Z,30.69
2019-06-20T10:22:05.575Z,30.62
2019-06-20T10:23:05.090Z,30.69
2019-06-20T10:24:05.316Z,30.69
2019-06-20T10:25:05.421Z,30.69
2019-06-20T10:26:05.480Z,30.62
2019-06-20T10:27:05.472Z,30.56
2019-06-20T10:28:05.232Z,30.50
2019-06-20T10:29:05.718Z,30.50
2019-06-20T10:30:14.173Z,30.50
2019-06-20T10:31:05.737Z,30.50
2019-06-20T10:32:05.869Z,30.44
2019-06-20T10:33:05.082Z,30.50
2019-06-20T10:34:05.372Z,30.56
2019-06-20T10:35:05.949Z,30.50
2019-06-20T10:36:05.970Z,30.62
2019-06-20T10:37:05.167Z,30.62
2019-06-20T10:38:06.828Z,30.81
2019-06-20T10:39:05.479Z,31.00
2019-06-20T10:40:05.162Z,31.12
2019-06-20T10:41:05.895Z,31.25
2019-06-20T10:42:05.895Z,31.31
2019-06-20T10:43:05.466Z,31.31
2019-06-20T10:44:05.835Z,31.50
2019-06-20T10:45:05.346Z,31.44
2019-06-20T10:46:05.543Z,31.44
2019-06-20T10:47:05.410Z,31.38
2019-06-20T10:48:05.573Z,31.31
2019-06-20T10:49:06.097Z,31.31
2019-06-20T10:50:05.790Z,31.38
2019-06-20T10:51:05.479Z,31.38
2019-06-20T10:52:05.318Z,31.31
2019-06-20T10:53:05.154Z,31.25
2019-06-20T10:54:05.147Z,31.31
2019-06-20T10:55:05.806Z,31.31
2019-06-20T10:56:05.151Z,31.19
2019-06-20T10:57:05.489Z,31.19
2019-06-20T10:58:05.498Z,31.25
2019-06-20T10:59:05.399Z,31.31
2019-06-20T11:00:05.561Z,31.56
2019-06-20T11:01:05.958Z,31.62
2019-06-20T11:02:07.210Z,31.50
2019-06-20T11:03:05.954Z,31.56
2019-06-20T11:04:05.726Z,31.62
2019-06-20T11:05:05.204Z,31.56
2019-06-20T11:06:05.579Z,31.56
2019-06-20T11:07:05.813Z,31.50
2019-06-20T11:08:05.243Z,31.25
2019-06-20T11:09:05.501Z,31.19
2019-06-20T11:10:05.949Z,31.19
2019-06-20T11:11:05.650Z,31.06
2019-06-20T11:12:06.055Z,31.06
2019-06-20T11:13:05.836Z,31.06
2019-06-20T11:14:05.796Z,31.06
2019-06-20T11:15:05.569Z,31.06
2019-06-20T11:16:05.253Z,30.94
2019-06-20T11:17:05.384Z,30.94
2019-06-20T11:18:05.668Z,30.88
2019-06-20T11:19:05.728Z,30.88
2019-06-20T11:20:05.804Z,30.94
2019-06-20T11:21:05.644Z,31.12
2019-06-20T11:22:05.585Z,31.19
2019-06-20T11:23:05.555Z,31.19
2019-06-20T11:24:05.652Z,31.25
2019-06-20T11:25:05.316Z,31.31
2019-06-20T11:26:05.802Z,31.38
2019-06-20T11:27:05.112Z,31.38
2019-06-20T11:28:05.336Z,31.38
2019-06-20T11:29:05.770Z,31.38
2019-06-20T11:30:05.818Z,31.38
2019-06-20T11:31:05.899Z,31.38
2019-06-20T11:32:05.247Z,31.38
2019-06-20T11:33:06.012Z,31.44
2019-06-20T11:34:05.816Z,31.50
2019-06-20T11:35:05.351Z,31.56
2019-06-20T11:36:06.133Z,31.75
2019-06-20T11:37:05.491Z,31.81
2019-06-20T11:38:06.034Z,31.81
2019-06-20T11:39:05.562Z,31.81
2019-06-20T11:40:05.262Z,31.75
2019-06-20T11:41:05.242Z,31.81
2019-06-20T11:42:05.827Z,31.81
2019-06-20T11:43:06.037Z,31.88
2019-06-20T11:44:05.559Z,31.81
2019-06-20T11:45:05.719Z,31.81
2019-06-20T11:46:06.303Z,31.88
2019-06-20T11:47:05.569Z,31.88
2019-06-20T11:48:05.330Z,31.94
2019-06-20T11:49:06.106Z,31.94
2019-06-20T11:50:05.085Z,32.00
2019-06-20T11:51:05.152Z,32.00
2019-06-20T11:52:05.977Z,32.06
2019-06-20T11:53:05.333Z,32.06
2019-06-20T11:54:05.820Z,32.06
2019-06-20T11:55:05.508Z,32.00
2019-06-20T11:56:05.862Z,32.00
2019-06-20T11:57:05.956Z,31.94
2019-06-20T11:58:05.734Z,31.94
2019-06-20T11:59:05.283Z,31.94
2019-06-20T12:00:05.590Z,31.88
2019-06-20T12:01:05.814Z,31.81
2019-06-20T12:02:05.971Z,31.75
2019-06-20T12:03:05.721Z,31.69
2019-06-20T12:04:05.255Z,31.69
2019-06-20T12:05:05.313Z,31.81
2019-06-20T12:06:05.814Z,31.75
2019-06-20T12:07:05.969Z,31.75
2019-06-20T12:08:05.249Z,31.75
2019-06-20T12:09:05.645Z,31.69
2019-06-20T12:10:05.332Z,31.69
2019-06-20T12:11:05.419Z,31.69
2019-06-20T12:12:05.604Z,31.69
2019-06-20T12:13:05.721Z,31.69
2019-06-20T12:14:05.993Z,31.62
2019-06-20T12:15:07.087Z,31.69
2019-06-20T12:16:05.745Z,31.62
2019-06-20T12:17:06.054Z,31.62
2019-06-20T12:18:05.699Z,31.62
2019-06-20T12:19:05.904Z,31.69
2019-06-20T12:20:05.974Z,31.75
2019-06-20T12:21:05.351Z,31.75
2019-06-20T12:22:05.766Z,31.75
2019-06-20T12:23:05.815Z,31.81
2019-06-20T12:24:08.413Z,31.81
2019-06-20T12:25:05.650Z,31.75
2019-06-20T12:26:05.338Z,31.81
2019-06-20T12:27:06.070Z,31.88
2019-06-20T12:28:05.171Z,31.88
2019-06-20T12:29:05.500Z,31.88
2019-06-20T12:30:05.968Z,31.94
2019-06-20T12:31:18.449Z,31.81
2019-06-20T12:32:05.331Z,31.81
2019-06-20T12:33:06.506Z,31.81
2019-06-20T12:34:06.004Z,31.75
2019-06-20T12:35:05.083Z,31.69
2019-06-20T12:36:05.251Z,31.62
2019-06-20T12:37:06.056Z,31.62
2019-06-20T12:38:05.291Z,31.62
2019-06-20T12:39:05.734Z,31.62
2019-06-20T12:40:05.325Z,31.50
2019-06-20T12:41:05.663Z,31.50
2019-06-20T12:42:05.942Z,31.44
2019-06-20T12:43:05.493Z,31.38
2019-06-20T12:44:06.095Z,31.31
2019-06-20T12:45:05.739Z,31.38
2019-06-20T12:46:06.181Z,31.44
2019-06-20T12:47:05.783Z,31.38
2019-06-20T12:48:05.862Z,31.50
2019-06-20T12:49:05.463Z,31.62
2019-06-20T12:50:06.044Z,31.75
2019-06-20T12:51:06.121Z,31.88
2019-06-20T12:52:05.626Z,31.88
2019-06-20T12:53:05.890Z,31.88
2019-06-20T12:54:05.088Z,31.94
2019-06-20T12:55:05.345Z,32.00